Latest Weather Observations for Bedout Island

IDW60801

Issued at 5:35 pm WST Friday 29 August 2014 (issued every 30 minutes, with the page automatically refreshed every 10 minutes)

About weather observations | Map of weather stations | Latest weather observations for WA | Other Formats
Station Details ID: 004100 Name: BEDOUT ISLAND Lat: -19.59 Lon: 119.10 Height: 8.6 m
Data from the previous 72 hours. | See also: Recent months for locations in Western Australia
Date/Time
WST
Temp
°C
App
Temp
°C
Dew
Point
Rel
Hum
%
Delta-T
°C
Wind Press
QNH
hPa
Press
MSL
hPa
Rain
since 9 am
mm
Dir
 
Spd
km/h
Gust
km/h
Spd
kts
Gust
kts
29/05:30pm 22.6 23.0 17.3 72 3.3 NNE 11 13 6 7 1015.3 - -
29/05:00pm 23.6 23.6 17.3 67 3.9 NE 13 13 7 7 1015.2 - -
29/04:30pm 24.1 24.1 17.1 65 4.3 E 13 15 7 8 1015.1 - -
29/04:00pm 24.5 23.7 17.2 63 4.5 E 17 19 9 10 1015.2 - -
29/03:30pm 25.3 24.8 17.7 62 4.8 E 17 19 9 10 1015.1 - -
29/03:00pm 25.6 24.4 17.0 59 5.3 E 19 22 10 12 1015.2 1015.1 -
29/02:30pm 26.0 24.4 16.5 55 5.9 E 20 22 11 12 1015.3 - -
29/02:00pm 26.4 24.8 16.6 55 6.1 E 20 24 11 13 1015.6 - -
29/01:30pm 26.1 24.0 15.2 51 6.6 E 20 24 11 13 1015.9 - -
29/01:00pm 26.3 24.3 15.4 51 6.6 E 20 24 11 13 1016.3 - -
29/12:30pm 26.2 24.4 15.9 53 6.3 E 20 24 11 13 1016.5 - -
29/12:00pm 26.1 23.8 15.8 53 6.3 E 22 26 12 14 1016.8 1016.7 -
29/11:30am 26.2 24.1 15.3 51 6.6 E 20 24 11 13 1017.2 - -
29/11:00am 25.8 23.0 14.3 49 6.8 ESE 22 24 12 13 1017.4 - -
29/10:30am 25.8 22.8 13.6 47 7.2 ESE 22 26 12 14 1017.7 - -
29/10:00am 25.7 22.5 14.2 49 6.8 ESE 24 28 13 15 1017.7 - -
29/09:30am 25.3 23.0 15.6 55 5.9 ESE 22 26 12 14 1017.7 - -
29/09:00am 24.9 23.2 16.3 59 5.3 SE 20 22 11 12 1017.9 1017.8 -
29/08:30am 24.5 23.2 15.7 58 5.3 ESE 17 20 9 11 1017.7 - -
29/08:00am 23.3 21.3 15.4 61 4.7 E 20 22 11 12 1017.6 - -
29/07:30am 22.5 21.2 15.8 66 4.0 E 17 19 9 10 1017.3 - -
29/07:00am 21.3 20.8 15.8 71 3.3 E 13 15 7 8 1016.8 - -
29/06:30am 20.0 18.9 14.4 70 3.3 ESE 13 15 7 8 1016.3 - -
29/06:00am 19.7 17.6 13.6 68 3.5 ESE 17 19 9 10 1016.0 1015.9 -
29/05:30am 19.6 17.5 13.5 68 3.5 ESE 17 20 9 11 1016.1 - -
29/05:00am 19.3 16.5 13.2 68 3.5 ESE 20 22 11 12 1015.9 - -
29/04:30am 19.9 16.7 14.3 70 3.2 SE 24 28 13 15 1016.0 - -
29/04:00am 18.9 14.7 13.5 71 3.1 SE 28 33 15 18 1015.7 - -
29/03:30am 18.4 14.7 15.1 81 1.9 SE 28 32 15 17 1016.1 - -
29/03:00am 19.6 17.3 17.6 88 1.2 ESE 26 32 14 17 1016.2 1016.1 -
29/02:30am 19.2 17.5 17.3 89 1.2 S 22 26 12 14 1015.8 - -
29/02:00am 19.3 18.3 18.0 92 0.8 SSE 20 26 11 14 1016.0 - -
29/01:30am 20.3 19.8 19.0 92 0.8 SSE 20 26 11 14 1016.2 - -
29/01:00am 20.5 21.8 19.2 92 0.8 S 11 15 6 8 1016.3 - -
29/12:30am 20.6 21.8 19.1 91 0.9 S 11 17 6 9 1016.2 - -
29/12:00am 21.0 21.9 19.3 90 1.1 SW 13 15 7 8 1016.2 1016.1 -
 
Date/Time
WST
Temp
°C
App
Temp
°C
Dew
Point
Rel
Hum
%
Delta-T
°C
Wind Press
QNH
hPa
Press
MSL
hPa
Rain
since 9 am
mm
Dir
 
Spd
km/h
Gust
km/h
Spd
kts
Gust
kts
28/11:30pm 21.1 22.4 19.2 89 1.2 WSW 11 13 6 7 1016.5 - -
28/11:00pm 20.4 21.0 18.7 90 1.1 WSW 13 15 7 8 1016.4 - -
28/10:30pm 20.7 21.2 19.2 91 0.9 SW 15 17 8 9 1016.3 - -
28/10:00pm 20.6 21.7 18.9 90 1.1 W 11 13 6 7 1016.1 - -
28/09:30pm 20.6 22.0 18.7 89 1.2 WNW 9 11 5 6 1016.0 - -
28/09:00pm 20.6 21.5 18.5 88 1.3 NW 11 11 6 6 1016.1 1016.0 -
28/08:30pm 20.7 21.6 18.3 86 1.5 NNW 11 13 6 7 1016.1 - -
28/08:00pm 21.1 21.5 18.1 83 1.9 NNW 13 15 7 8 1015.9 - -
28/07:30pm 21.1 21.0 17.9 82 2.0 NNW 15 17 8 9 1015.7 - -
28/07:00pm 21.3 20.3 17.5 79 2.3 N 19 20 10 11 1015.2 - -
28/06:30pm 21.6 21.0 17.6 78 2.5 N 17 19 9 10 1015.0 - -
28/06:00pm 22.0 21.3 17.4 75 2.8 N 17 17 9 9 1014.8 1014.7 -
28/05:30pm 22.7 22.1 16.7 69 3.7 N 15 17 8 9 1014.8 - -
28/05:00pm 24.2 25.0 17.2 65 4.3 NNE 9 11 5 6 1014.9 - -
28/04:30pm 24.8 25.8 16.8 61 4.9 NE 7 11 4 6 1014.8 - -
28/04:00pm 25.1 25.0 16.0 57 5.5 E 11 13 6 7 1014.6 - -
28/03:30pm 25.6 25.5 15.9 55 5.9 E 11 15 6 8 1014.6 - -
28/03:00pm 26.0 25.0 15.7 53 6.3 E 15 17 8 9 1014.6 1014.5 -
28/02:30pm 26.2 24.9 15.9 53 6.3 E 17 20 9 11 1014.9 - -
28/02:00pm 26.4 24.4 15.4 50 6.7 E 20 22 11 12 1015.1 - -
28/01:30pm 26.6 24.4 15.9 51 6.6 E 22 24 12 13 1015.2 - -
28/01:00pm 26.7 24.6 16.3 53 6.4 E 22 26 12 14 1015.3 - -
28/12:30pm 26.5 24.1 15.5 50 6.7 E 22 24 12 13 1015.7 - -
28/12:00pm 27.0 24.3 14.7 47 7.4 E 22 26 12 14 1016.1 1016.0 -
28/11:30am 26.7 24.6 16.3 53 6.4 E 22 26 12 14 1016.6 - -
28/11:00am 26.0 22.9 14.5 49 6.9 E 24 28 13 15 1016.6 - -
28/10:30am 25.8 22.7 14.6 50 6.7 E 24 26 13 14 1017.1 - -
28/10:00am 25.5 22.4 14.6 51 6.5 E 24 26 13 14 1017.3 - -
28/09:30am 25.0 22.3 15.6 56 5.7 ESE 24 28 13 15 1017.3 - -
28/09:00am 24.1 20.2 13.3 51 6.3 ESE 26 30 14 16 1017.3 1017.2 -
28/08:30am 23.9 21.4 14.0 54 5.8 SE 20 24 11 13 1017.3 - -
28/08:00am 23.3 21.0 14.0 56 5.4 SSE 19 20 10 11 1017.3 - -
28/07:30am 22.5 20.9 14.9 62 4.5 ESE 17 20 9 11 1017.3 - -
28/07:00am 21.4 18.9 14.1 63 4.2 ESE 20 24 11 13 1017.1 - -
28/06:30am 20.3 18.1 14.4 69 3.4 E 19 22 10 12 1016.7 - -
28/06:00am 19.1 16.5 13.1 68 3.4 SE 19 26 10 14 1015.9 1015.8 -
28/05:30am 19.8 19.5 13.3 66 3.7 N 7 11 4 6 1015.6 - -
28/05:00am 19.3 17.9 13.5 69 3.3 S 13 20 7 11 1015.3 - -
28/04:30am 20.2 17.4 14.3 69 3.4 SSE 22 26 12 14 1014.9 - -
28/04:00am 20.5 16.7 14.8 70 3.3 SSE 28 33 15 18 1014.9 - -
28/03:30am 20.2 16.4 14.8 71 3.2 SSE 28 32 15 17 1014.8 - -
28/03:00am 20.0 16.8 15.4 75 2.7 S 26 32 14 17 1014.8 1014.7 -
28/02:30am 19.8 16.3 15.4 76 2.6 S 28 32 15 17 1014.9 - -
28/02:00am 20.1 17.8 17.5 85 1.6 S 26 30 14 16 1015.0 - -
28/01:30am 20.4 18.8 18.3 88 1.3 SSE 24 28 13 15 1015.4 - -
28/01:00am 20.3 23.2 18.2 88 1.3 CALM 0 4 0 2 1015.5 - -
28/12:30am 20.0 22.7 17.8 87 1.4 CALM 0 6 0 3 1015.7 - -
28/12:00am 20.7 23.6 18.3 86 1.5 CALM 0 4 0 2 1016.2 1016.1 -
 
Date/Time
WST
Temp
°C
App
Temp
°C
Dew
Point
Rel
Hum
%
Delta-T
°C
Wind Press
QNH
hPa
Press
MSL
hPa
Rain
since 9 am
mm
Dir
 
Spd
km/h
Gust
km/h
Spd
kts
Gust
kts
27/11:30pm 20.7 23.3 18.3 86 1.5 S 2 4 1 2 1016.1 - -
27/11:00pm 21.7 23.4 19.3 86 1.5 WNW 9 11 5 6 1016.1 - -
27/10:30pm 21.7 23.9 19.6 88 1.3 WNW 7 9 4 5 1016.2 - -
27/10:00pm 21.4 22.6 19.1 87 1.5 WNW 11 11 6 6 1016.2 - -
27/09:30pm 21.3 22.8 18.9 86 1.5 WNW 9 11 5 6 1016.2 - -
27/09:00pm 21.4 22.7 18.4 83 1.9 WNW 9 11 5 6 1016.2 1016.1 -
27/08:30pm 22.3 23.7 17.9 76 2.7 NNW 7 9 4 5 1016.0 - -
27/08:00pm 22.3 22.4 17.4 74 3.0 N 13 13 7 7 1015.8 - -
27/07:30pm 21.5 20.5 16.7 74 2.9 N 17 17 9 9 1015.5 - -
27/07:00pm 21.5 20.5 16.5 73 3.0 N 17 19 9 10 1015.2 - -
27/06:30pm 21.9 21.0 16.8 73 3.1 N 17 17 9 9 1014.9 - -
27/06:00pm 22.0 20.9 16.3 70 3.4 N 17 19 9 10 1014.6 1014.5 -
27/05:30pm 23.4 21.8 16.4 64 4.3 NNE 20 24 11 13 1014.5 - -
27/05:00pm 24.4 22.8 16.6 61 4.8 NE 20 24 11 13 1014.6 - -
27/04:30pm 25.3 23.2 16.2 57 5.6 NE 22 24 12 13 1014.5 - -
27/04:00pm 25.7 23.3 16.5 56 5.7 NE 24 26 13 14 1014.5 - -
27/03:30pm 26.0 24.1 16.8 57 5.7 NE 22 28 12 15 1014.6 - -
27/03:00pm 26.4 24.3 16.3 53 6.2 ENE 22 24 12 13 1014.9 1014.8 -
27/02:30pm 26.2 23.9 16.7 56 5.9 ENE 24 28 13 15 1015.1 - -
27/02:00pm 26.1 23.1 15.8 53 6.3 ENE 26 28 14 15 1015.3 - -
27/01:30pm 26.4 23.7 16.6 55 6.1 ENE 26 30 14 16 1015.6 - -
27/01:00pm 26.2 22.8 15.9 53 6.3 ENE 28 32 15 17 1016.0 - -
27/12:30pm 26.0 22.5 15.4 52 6.4 E 28 32 15 17 1016.2 - -
27/12:00pm 25.8 21.9 15.5 53 6.2 E 30 33 16 18 1016.6 1016.5 -
27/11:30am 25.7 21.8 15.4 53 6.2 E 30 35 16 19 1016.9 - -
27/11:00am 25.4 21.6 15.7 55 5.9 E 30 35 16 19 1017.2 - -
27/10:30am 25.1 20.7 15.1 53 6.0 E 32 35 17 19 1017.5 - -
27/10:00am 25.1 21.2 15.4 55 5.9 E 30 35 16 19 1017.6 - -
27/09:30am 24.8 20.7 14.9 54 5.9 E 30 33 16 18 1017.6 - -
27/09:00am 24.5 19.6 13.7 51 6.3 E 32 35 17 19 1017.5 1017.4 -
27/08:30am 24.1 21.6 16.1 61 4.9 E 24 26 13 14 1017.5 - -
27/08:00am 23.2 20.1 14.5 58 5.1 E 24 28 13 15 1017.3 - -
27/07:30am 22.3 19.0 13.9 59 4.9 ESE 24 26 13 14 1016.9 - -
27/07:00am 21.3 18.5 14.2 64 4.1 ESE 22 24 12 13 1016.5 - -
27/06:30am 20.4 18.0 14.3 68 3.5 SE 20 24 11 13 1016.2 - -
27/06:00am 20.1 17.7 14.5 70 3.3 SE 20 24 11 13 1015.9 1015.8 -
27/05:30am 20.1 17.2 14.0 68 3.5 SE 22 26 12 14 1015.5 - -
27/05:00am 20.2 16.8 13.6 66 3.8 SE 24 28 13 15 1015.2 - -
27/04:30am 20.3 16.8 13.5 65 3.9 SE 24 28 13 15 1015.0 - -
27/04:00am 20.5 17.1 13.7 65 3.9 SE 24 26 13 14 1015.0 - -
27/03:30am 20.1 17.0 13.3 65 3.9 SE 22 26 12 14 1015.1 - -
27/03:00am 20.0 15.8 13.5 66 3.7 SE 28 32 15 17 1015.2 1015.1 -
27/02:30am 19.9 17.6 14.0 69 3.4 SSE 19 20 10 11 1015.3 - -
27/02:00am 20.0 17.6 14.4 70 3.3 SSE 20 22 11 12 1015.5 - -
27/01:30am 19.7 17.0 14.5 72 3.0 SSE 22 24 12 13 1015.6 - -
27/01:00am 19.9 19.4 16.0 78 2.3 SSE 13 15 7 8 1015.7 - -
27/12:30am 20.2 20.6 16.4 79 2.3 E 9 13 5 7 1016.0 - -
27/12:00am 20.1 19.2 15.9 77 2.5 S 15 19 8 10 1015.9 1015.8 -
 
Date/Time
WST
Temp
°C
App
Temp
°C
Dew
Point
Rel
Hum
%
Delta-T
°C
Wind Press
QNH
hPa
Press
MSL
hPa
Rain
since 9 am
mm
Dir
 
Spd
km/h
Gust
km/h
Spd
kts
Gust
kts
26/11:30pm 20.1 19.4 16.3 79 2.3 S 15 17 8 9 1016.0 - -
26/11:00pm 20.2 19.6 16.6 80 2.2 S 15 17 8 9 1016.1 - -
26/10:30pm 20.1 19.7 17.1 83 1.8 SSE 15 19 8 10 1016.0 - -
26/10:00pm 21.4 22.1 18.0 81 2.1 S 11 13 6 7 1016.2 - -
26/09:30pm 21.9 23.1 14.8 64 4.2 ENE 2 7 1 4 1016.2 - -
26/09:00pm 22.2 22.9 18.0 77 2.6 NNE 11 13 6 7 1016.1 1016.0 -
26/08:30pm 21.7 22.4 17.9 79 2.4 NNE 11 13 6 7 1016.0 - -
26/08:00pm 21.3 21.4 17.5 79 2.3 NNE 13 13 7 7 1016.0 - -
26/07:30pm 21.5 21.1 17.1 76 2.7 NNE 15 15 8 8 1015.8 - -
26/07:00pm 21.5 20.9 16.7 74 2.9 NNE 15 15 8 8 1015.4 - -
26/06:30pm 22.3 21.8 17.0 72 3.2 NNE 15 17 8 9 1015.1 - -
26/06:00pm 22.6 21.4 16.2 67 3.9 NE 17 19 9 10 1014.9 1014.8 -

Other Formats:

Comma delimited format used in spreadsheet applications
http://www.bom.gov.au/fwo/IDW60801/IDW60801.94310.axf

JavaScript Object Notation format (JSON) in row-major order
http://www.bom.gov.au/fwo/IDW60801/IDW60801.94310.json